Time;durP1;ratioP1;P1;durP2;ratioP2;P2;SDS_P1;SDS_P2;PMS_P1;PMS_P2;Temp;Humidity;BMP_temperature;BMP_pressure;BME280_temperature;BME280_humidity;BME280_pressure;Samples;Min_cycle;Max_cycle;Signal;HPM_P1;HPM_P2
2022/05/15 00:02:53;;;;;;;;;;;;;;;16.92;54.49;93060.34;2055553;70;20149;-71
2022/05/15 00:05:19;;;;;;;;;;;;;;;16.97;53.33;93059.13;2063162;69;20070;-70
2022/05/15 00:07:44;;;;;;;;;;;;;;;16.81;55.01;93061.28;2068404;69;20047;-71
2022/05/15 00:10:10;;;;;;;;;;;;;;;16.76;54.91;93062.47;2055587;69;20399;-71
2022/05/15 00:12:35;;;;;;;;;;;;;;;16.69;54.95;93061.47;2055553;70;20120;-72
2022/05/15 00:15:01;;;;;;;;;;;;;;;16.78;53.91;93059.75;2055169;70;20050;-73
2022/05/15 00:17:26;;;;;;;;;;;;;;;16.61;54.92;93063.22;2055230;69;20149;-71
2022/05/15 00:19:52;;;;;;;;;;;;;;;16.52;55.40;93054.31;2055589;69;20494;-71
2022/05/15 00:25:46;;;;;;;;;;;;;;;16.47;55.71;93051.94;2055656;69;20077;-71
2022/05/15 00:28:13;;;;;;;;;;;;;;;16.57;54.73;93046.72;2068596;69;20410;-73
2022/05/15 00:30:39;;;;;;;;;;;;;;;16.38;55.97;93056.53;2068388;69;20149;-71
2022/05/15 00:33:05;;;;;;;;;;;;;;;16.45;55.75;93051.88;2068391;69;20043;-70
2022/05/15 00:35:30;;;;;;;;;;;;;;;16.48;55.14;93047.72;2055523;70;20057;-71
2022/05/15 00:37:56;;;;;;;;;;;;;;;16.39;55.73;93058.00;2068216;69;20502;-70
2022/05/15 00:40:22;;;;;;;;;;;;;;;16.33;56.03;93046.38;2055538;70;20054;-71
2022/05/15 00:42:48;;;;;;;;;;;;;;;16.46;54.88;93054.06;2055263;69;20115;-71
2022/05/15 00:45:14;;;;;;;;;;;;;;;16.30;56.16;93063.94;2068513;69;20054;-70
2022/05/15 00:47:40;;;;;;;;;;;;;;;16.25;56.10;93052.41;2055398;70;20063;-70
2022/05/15 00:50:08;;;;;;;;;;;;;;;16.21;56.25;93060.00;2055589;70;20165;-70
2022/05/15 00:52:38;;;;;;;;;;;;;;;16.09;56.33;93057.34;2068316;69;20073;-70
2022/05/15 00:55:12;;;;;;;;;;;;;;;16.08;56.65;93058.72;2068669;69;20058;-71
2022/05/15 00:57:59;;;;;;;;;;;;;;;15.99;57.65;93057.63;2067997;69;20050;-70
2022/05/15 01:00:27;;;;;;;;;;;;;;;16.07;56.56;93059.34;2055600;70;20613;-70
2022/05/15 01:03:00;;;;;;;;;;;;;;;15.91;56.84;93051.56;2055440;70;20147;-72
2022/05/15 01:05:27;;;;;;;;;;;;;;;15.99;56.42;93054.06;2068566;69;20469;-71
2022/05/15 01:07:52;;;;;;;;;;;;;;;15.95;56.70;93059.53;2068467;69;20147;-71
2022/05/15 01:10:18;;;;;;;;;;;;;;;15.80;57.65;93051.72;2068593;69;20417;-70
2022/05/15 01:12:44;;;;;;;;;;;;;;;15.89;57.31;93062.81;2055610;69;20043;-72
2022/05/15 01:15:18;;;;;;;;;;;;;;;15.87;56.95;93059.16;2068215;69;20061;-73
2022/05/15 01:17:44;;;;;;;;;;;;;;;15.96;56.74;93052.47;2068196;69;20189;-71
2022/05/15 01:20:13;;;;;;;;;;;;;;;15.87;57.56;93056.31;2068017;69;20153;-72
2022/05/15 01:22:38;;;;;;;;;;;;;;;15.65;58.57;93047.47;2054685;69;20046;-71
2022/05/15 01:25:06;;;;;;;;;;;;;;;15.63;58.15;93048.09;2054612;70;20061;-71
2022/05/15 01:27:33;;;;;;;;;;;;;;;15.67;57.48;93051.16;2054661;70;20070;-71
2022/05/15 01:29:58;;;;;;;;;;;;;;;15.58;58.46;93049.28;2068133;69;20085;-71
2022/05/15 01:32:24;;;;;;;;;;;;;;;15.53;58.82;93047.59;2055442;70;20479;-71
2022/05/15 01:38:18;;;;;;;;;;;;;;;15.81;56.58;93050.38;2055451;69;20108;-72
2022/05/15 01:40:46;;;;;;;;;;;;;;;15.48;58.57;93043.09;2068382;69;20050;-70
2022/05/15 01:43:11;;;;;;;;;;;;;;;15.49;58.64;93047.41;2068217;69;20474;-71
2022/05/15 01:45:37;;;;;;;;;;;;;;;15.14;59.63;93045.00;2068478;69;20093;-71
2022/05/15 01:48:03;;;;;;;;;;;;;;;15.40;58.66;93048.41;2068349;69;20070;-70
2022/05/15 01:50:30;;;;;;;;;;;;;;;15.43;58.14;93047.84;2068385;69;20088;-71
2022/05/15 01:52:56;;;;;;;;;;;;;;;15.36;58.65;93042.53;2068682;69;20122;-71
2022/05/15 01:55:22;;;;;;;;;;;;;;;15.47;57.44;93044.47;2068350;69;20065;-70
2022/05/15 02:01:16;;;;;;;;;;;;;;;15.45;57.47;93047.22;2055317;69;20426;-71
2022/05/15 02:07:11;;;;;;;;;;;;;;;15.35;57.35;93050.31;2056128;69;20401;-71
2022/05/15 02:09:37;;;;;;;;;;;;;;;15.32;57.66;93051.56;2068817;69;20494;-70
2022/05/15 02:12:03;;;;;;;;;;;;;;;15.20;59.46;93048.84;2068848;69;20054;-70
2022/05/15 02:14:28;;;;;;;;;;;;;;;15.08;59.22;93045.44;2065698;69;20054;-70
2022/05/15 02:16:55;;;;;;;;;;;;;;;14.97;59.24;93049.84;2055466;70;20053;-70
2022/05/15 02:19:20;;;;;;;;;;;;;;;15.05;58.99;93043.13;2065863;69;20046;-72
2022/05/15 02:21:47;;;;;;;;;;;;;;;15.02;58.45;93036.59;2068854;69;20145;-72
2022/05/15 02:24:13;;;;;;;;;;;;;;;15.15;57.57;93033.00;2068748;69;20480;-70
2022/05/15 02:26:39;;;;;;;;;;;;;;;15.07;58.45;93029.75;2068840;69;20081;-71
2022/05/15 02:29:05;;;;;;;;;;;;;;;15.20;57.85;93036.78;2068756;69;20046;-71
2022/05/15 02:31:31;;;;;;;;;;;;;;;15.07;58.47;93032.59;2068734;69;20149;-71
2022/05/15 02:33:58;;;;;;;;;;;;;;;15.02;58.79;93033.03;2055682;70;20150;-72
2022/05/15 02:36:24;;;;;;;;;;;;;;;15.00;59.14;93033.69;2068748;69;20077;-72
2022/05/15 02:42:21;;;;;;;;;;;;;;;14.90;58.72;93033.91;2055644;69;20134;-72
2022/05/15 02:44:47;;;;;;;;;;;;;;;14.89;59.14;93029.63;2055634;70;20089;-75
2022/05/15 02:47:12;;;;;;;;;;;;;;;14.93;59.41;93026.97;2068687;69;20058;-72
2022/05/15 02:52:22;;;;;;;;;;;;;;;14.23;61.75;93022.69;2055689;70;20058;-72
2022/05/15 02:54:49;;;;;;;;;;;;;;;14.67;59.63;93039.81;2055648;69;20061;-72
2022/05/15 02:57:14;;;;;;;;;;;;;;;14.59;60.02;93030.91;2055561;70;20419;-73
2022/05/15 02:59:40;;;;;;;;;;;;;;;14.74;58.89;93035.91;2068589;69;20061;-71
2022/05/15 03:02:05;;;;;;;;;;;;;;;14.72;59.33;93045.06;2055995;69;20558;-72
2022/05/15 03:04:32;;;;;;;;;;;;;;;14.71;58.87;93037.94;2055556;70;20474;-71
2022/05/15 03:06:58;;;;;;;;;;;;;;;14.66;59.29;93041.16;2068515;69;20505;-72
2022/05/15 03:09:23;;;;;;;;;;;;;;;14.60;59.80;93040.88;2068756;69;20046;-72
2022/05/15 03:11:49;;;;;;;;;;;;;;;14.64;58.31;93041.06;2055809;70;20069;-71
2022/05/15 03:14:14;;;;;;;;;;;;;;;14.60;59.93;93044.44;2055560;69;20066;-71
2022/05/15 03:16:40;;;;;;;;;;;;;;;14.52;59.36;93040.44;2055663;70;20391;-71
2022/05/15 03:19:05;;;;;;;;;;;;;;;14.56;59.42;93044.22;2055563;70;20085;-71
2022/05/15 03:21:31;;;;;;;;;;;;;;;14.54;60.19;93041.28;2055615;69;20053;-72
2022/05/15 03:24:03;;;;;;;;;;;;;;;13.89;62.87;93041.41;2055600;70;20115;-72
2022/05/15 03:26:29;;;;;;;;;;;;;;;14.10;61.26;93051.72;2055750;70;20070;-73
2022/05/15 03:28:55;;;;;;;;;;;;;;;14.22;60.43;93052.38;2068316;69;20127;-73
2022/05/15 03:31:20;;;;;;;;;;;;;;;14.17;60.62;93049.94;2055601;70;20054;-73
2022/05/15 03:33:47;;;;;;;;;;;;;;;14.26;60.34;93048.28;2055639;69;20141;-73
2022/05/15 03:36:13;;;;;;;;;;;;;;;14.16;60.18;93045.66;2068707;69;20163;-74
2022/05/15 03:38:40;;;;;;;;;;;;;;;14.12;60.28;93051.84;2068752;69;20142;-73
2022/05/15 03:41:05;;;;;;;;;;;;;;;14.13;60.36;93046.91;2068539;69;20512;-73
2022/05/15 03:43:31;;;;;;;;;;;;;;;14.11;60.69;93044.72;2068690;69;20046;-72
2022/05/15 03:45:56;;;;;;;;;;;;;;;14.12;60.37;93048.28;2065952;69;20069;-72
2022/05/15 03:48:22;;;;;;;;;;;;;;;14.09;60.54;93047.41;2068341;69;20140;-72
2022/05/15 03:54:16;;;;;;;;;;;;;;;13.99;60.75;93064.59;2055785;69;20053;-73
2022/05/15 03:56:51;;;;;;;;;;;;;;;14.13;59.37;93058.22;2065577;69;20050;-71
2022/05/15 03:59:21;;;;;;;;;;;;;;;14.12;60.62;93053.94;2068771;69;20054;-72
2022/05/15 04:01:47;;;;;;;;;;;;;;;14.12;59.97;93068.09;2068731;69;20054;-72
2022/05/15 04:04:13;;;;;;;;;;;;;;;13.99;60.83;93058.94;2068695;69;20054;-72
2022/05/15 04:10:08;;;;;;;;;;;;;;;14.12;60.49;93054.66;2055852;69;20116;-73
2022/05/15 04:12:33;;;;;;;;;;;;;;;14.14;59.95;93054.75;2068715;69;20066;-72
2022/05/15 04:14:59;;;;;;;;;;;;;;;13.97;61.70;93061.66;2068187;69;20082;-73
2022/05/15 04:17:26;;;;;;;;;;;;;;;13.99;61.26;93055.38;2068422;69;20062;-74
2022/05/15 04:19:52;;;;;;;;;;;;;;;13.97;61.59;93056.00;2055633;70;20057;-72
2022/05/15 04:22:17;;;;;;;;;;;;;;;14.02;61.01;93051.31;2068679;69;20047;-71
2022/05/15 04:24:43;;;;;;;;;;;;;;;13.93;60.93;93058.63;2068867;69;20054;-70
2022/05/15 04:27:08;;;;;;;;;;;;;;;13.67;62.76;93060.00;2065570;69;20057;-73
2022/05/15 04:29:34;;;;;;;;;;;;;;;13.92;61.83;93062.06;2068668;69;20058;-71
2022/05/15 04:31:59;;;;;;;;;;;;;;;13.98;61.30;93053.91;2065705;69;20062;-72
2022/05/15 04:34:27;;;;;;;;;;;;;;;14.03;61.05;93055.59;2068545;69;20051;-72
2022/05/15 04:36:53;;;;;;;;;;;;;;;13.41;64.14;93050.78;2055582;69;20055;-73
2022/05/15 04:39:19;;;;;;;;;;;;;;;13.97;61.68;93058.09;2055629;70;20542;-73
2022/05/15 04:41:44;;;;;;;;;;;;;;;13.94;61.97;93054.41;2055642;70;20119;-73
2022/05/15 04:44:10;;;;;;;;;;;;;;;14.01;61.09;93063.22;2068589;69;20502;-72
2022/05/15 04:46:36;;;;;;;;;;;;;;;13.93;61.91;93058.63;2068070;69;20407;-73
2022/05/15 04:49:01;;;;;;;;;;;;;;;14.03;61.11;93060.53;2055329;70;20090;-72
2022/05/15 04:51:28;;;;;;;;;;;;;;;14.11;60.13;93058.88;2055544;70;20057;-73
2022/05/15 04:53:54;;;;;;;;;;;;;;;14.01;61.67;93054.75;2055260;69;20054;-72
2022/05/15 04:56:20;;;;;;;;;;;;;;;14.03;61.28;93066.19;2068255;69;20066;-72
2022/05/15 04:58:46;;;;;;;;;;;;;;;13.85;62.82;93063.84;2055639;69;20150;-72
2022/05/15 05:01:12;;;;;;;;;;;;;;;14.14;60.69;93071.75;2055650;70;20056;-72
2022/05/15 05:03:37;;;;;;;;;;;;;;;13.92;61.60;93068.44;2068520;69;20042;-73
2022/05/15 05:06:03;;;;;;;;;;;;;;;14.13;60.82;93070.28;2068574;69;20478;-74
2022/05/15 05:08:28;;;;;;;;;;;;;;;14.16;61.17;93071.16;2055343;70;20108;-74
2022/05/15 05:10:54;;;;;;;;;;;;;;;14.08;61.47;93071.44;2065790;69;20410;-72
2022/05/15 05:13:19;;;;;;;;;;;;;;;13.97;60.31;93066.56;2055681;70;20069;-73
2022/05/15 05:15:45;;;;;;;;;;;;;;;13.93;62.15;93064.28;2055222;70;20057;-74
2022/05/15 05:18:13;;;;;;;;;;;;;;;13.93;62.01;93064.28;2055402;70;20086;-72
2022/05/15 05:20:38;;;;;;;;;;;;;;;14.03;61.45;93069.75;2055669;70;20050;-72
2022/05/15 05:23:04;;;;;;;;;;;;;;;14.15;61.13;93072.47;2055189;69;20043;-71
2022/05/15 05:25:29;;;;;;;;;;;;;;;14.26;60.11;93071.69;2065764;69;20062;-72
2022/05/15 05:27:55;;;;;;;;;;;;;;;14.30;59.50;93068.34;2055475;70;20141;-72
2022/05/15 05:30:22;;;;;;;;;;;;;;;14.06;60.96;93076.97;2055201;70;20505;-73
2022/05/15 05:32:47;;;;;;;;;;;;;;;14.32;60.00;93077.66;2055260;70;20085;-71
2022/05/15 05:35:13;;;;;;;;;;;;;;;14.36;59.93;93074.31;2068149;69;20090;-72
2022/05/15 05:37:39;;;;;;;;;;;;;;;14.50;58.00;93075.06;2068316;69;20057;-72
2022/05/15 05:40:05;;;;;;;;;;;;;;;14.55;59.35;93071.09;2055385;69;20051;-74
2022/05/15 05:42:30;;;;;;;;;;;;;;;14.64;58.98;93075.81;2068507;69;20498;-70
2022/05/15 05:44:56;;;;;;;;;;;;;;;14.65;59.64;93076.53;2055249;70;20058;-74
2022/05/15 05:47:25;;;;;;;;;;;;;;;14.66;57.42;93075.94;2068269;69;20086;-73
2022/05/15 05:49:50;;;;;;;;;;;;;;;14.59;57.88;93085.47;2055307;70;20058;-72
2022/05/15 05:52:16;;;;;;;;;;;;;;;14.65;58.56;93076.53;2055613;70;20115;-74
2022/05/15 05:54:42;;;;;;;;;;;;;;;14.59;60.03;93076.25;2068388;69;20066;-70
2022/05/15 05:57:07;;;;;;;;;;;;;;;14.68;58.44;93064.69;2065688;69;20131;-70
2022/05/15 05:59:33;;;;;;;;;;;;;;;14.84;59.50;93069.72;2065528;69;20057;-71
2022/05/15 06:01:58;;;;;;;;;;;;;;;14.82;59.48;93067.50;2055276;70;20551;-70
2022/05/15 06:04:39;;;;;;;;;;;;;;;14.79;60.48;93070.88;2055330;70;20116;-70
2022/05/15 06:07:05;;;;;;;;;;;;;;;14.98;57.94;93071.19;2055422;70;20042;-71
2022/05/15 06:09:31;;;;;;;;;;;;;;;15.05;58.17;93068.63;2055366;70;20061;-70
2022/05/15 06:11:58;;;;;;;;;;;;;;;14.99;58.51;93069.81;2068410;69;20050;-71
2022/05/15 06:14:23;;;;;;;;;;;;;;;15.08;59.51;93078.72;2055321;69;20154;-71
2022/05/15 06:16:49;;;;;;;;;;;;;;;15.03;58.30;93071.38;2054922;70;20416;-71
2022/05/15 06:19:14;;;;;;;;;;;;;;;15.26;56.22;93065.47;2055288;70;20042;-72
2022/05/15 06:21:40;;;;;;;;;;;;;;;15.07;58.75;93071.56;2068078;69;20089;-72
2022/05/15 06:24:05;;;;;;;;;;;;;;;15.19;57.21;93067.25;2068413;69;20054;-72
2022/05/15 06:26:31;;;;;;;;;;;;;;;15.35;57.56;93063.72;2068136;69;20057;-71
2022/05/15 06:28:56;;;;;;;;;;;;;;;15.34;59.08;93062.25;2068135;69;20159;-73
2022/05/15 06:31:22;;;;;;;;;;;;;;;15.44;58.77;93059.91;2068170;69;20050;-72
2022/05/15 06:33:47;;;;;;;;;;;;;;;15.46;57.92;93057.94;2055028;70;20061;-72
2022/05/15 06:36:13;;;;;;;;;;;;;;;15.61;58.01;93052.94;2055185;70;20064;-72
2022/05/15 06:38:41;;;;;;;;;;;;;;;15.85;56.78;93056.97;2055437;70;20443;-73
2022/05/15 06:41:10;;;;;;;;;;;;;;;16.01;56.17;93054.88;2068842;69;20050;-73
2022/05/15 06:43:36;;;;;;;;;;;;;;;16.11;58.17;93046.06;2055575;70;20115;-74
2022/05/15 06:46:02;;;;;;;;;;;;;;;16.18;57.27;93050.66;2055838;70;20054;-73
2022/05/15 06:48:27;;;;;;;;;;;;;;;16.35;54.06;93046.44;2055730;70;20441;-73
2022/05/15 06:50:52;;;;;;;;;;;;;;;16.39;54.80;93043.78;2055866;70;20115;-73
2022/05/15 06:53:18;;;;;;;;;;;;;;;16.46;54.51;93039.13;2056010;70;20047;-73
2022/05/15 06:58:28;;;;;;;;;;;;;;;16.65;54.47;93032.84;2068724;69;20054;-73
2022/05/15 07:00:53;;;;;;;;;;;;;;;16.74;55.54;93031.84;2055653;70;20050;-72
2022/05/15 07:03:19;;;;;;;;;;;;;;;16.85;55.47;93030.19;2055241;70;20061;-73
2022/05/15 07:05:45;;;;;;;;;;;;;;;16.96;56.47;93029.25;2055729;70;20054;-72
2022/05/15 07:11:40;;;;;;;;;;;;;;;17.13;56.29;93027.78;2055728;69;20053;-73
2022/05/15 07:14:05;;;;;;;;;;;;;;;17.19;56.93;93018.81;2068707;69;20058;-73
2022/05/15 07:16:31;;;;;;;;;;;;;;;17.23;56.63;93018.97;2055195;70;20110;-73
2022/05/15 07:18:56;;;;;;;;;;;;;;;17.39;54.68;93024.59;2055478;69;20151;-72
2022/05/15 07:21:22;;;;;;;;;;;;;;;17.55;54.46;93013.88;2055682;69;20046;-72
2022/05/15 07:23:48;;;;;;;;;;;;;;;17.64;55.63;93007.13;2068781;69;20143;-74
2022/05/15 07:26:15;;;;;;;;;;;;;;;17.78;55.38;93004.84;2055690;70;20053;-73
2022/05/15 07:28:41;;;;;;;;;;;;;;;17.91;55.06;92997.47;2068486;69;20410;-73
2022/05/15 07:31:06;;;;;;;;;;;;;;;17.97;54.12;92997.00;2068631;69;20058;-73
2022/05/15 07:33:31;;;;;;;;;;;;;;;18.26;56.23;92990.97;2068726;69;20077;-73
2022/05/15 07:35:57;;;;;;;;;;;;;;;18.56;55.48;92982.09;2055333;70;20104;-74
2022/05/15 07:42:07;;;;;;;;;;;;;;;19.28;52.93;92977.41;2055689;69;20069;-72
2022/05/15 07:44:33;;;;;;;;;;;;;;;19.62;51.96;92970.69;2055344;70;20051;-73
2022/05/15 07:46:58;;;;;;;;;;;;;;;19.99;50.40;92976.13;2067772;69;20051;-73
2022/05/15 07:49:24;;;;;;;;;;;;;;;20.35;48.54;92972.16;2055475;70;20153;-74
2022/05/15 07:51:49;;;;;;;;;;;;;;;20.56;49.92;92968.47;2055647;70;20139;-73
2022/05/15 07:54:16;;;;;;;;;;;;;;;20.95;46.77;92966.69;2055276;70;20424;-72
2022/05/15 07:56:42;;;;;;;;;;;;;;;21.54;47.86;92965.34;2054990;70;20433;-73
2022/05/15 07:59:08;;;;;;;;;;;;;;;21.67;46.16;92969.22;2055347;69;20524;-74
2022/05/15 08:01:34;;;;;;;;;;;;;;;21.62;45.37;92959.06;2055555;70;20086;-73
2022/05/15 08:03:59;;;;;;;;;;;;;;;22.38;45.57;92967.97;2055265;70;20137;-73
2022/05/15 08:09:09;;;;;;;;;;;;;;;22.76;42.52;92958.69;2055758;70;20086;-73
2022/05/15 08:11:36;;;;;;;;;;;;;;;22.94;43.57;92964.81;2068778;69;20090;-73
2022/05/15 08:14:02;;;;;;;;;;;;;;;23.28;42.92;92956.09;2055551;70;20051;-75
2022/05/15 08:16:28;;;;;;;;;;;;;;;24.08;42.00;92952.38;2055618;70;20504;-73
2022/05/15 08:24:22;;;;;;;;;;;;;;;24.18;40.88;92939.56;2055575;70;20109;-71
2022/05/15 08:26:48;;;;;;;;;;;;;;;24.84;39.87;92936.09;2055528;70;20086;-75
2022/05/15 08:29:14;;;;;;;;;;;;;;;24.58;38.38;92928.59;2055572;70;20501;-73
2022/05/15 08:31:40;;;;;;;;;;;;;;;24.65;37.86;92932.28;2055630;70;20134;-71
2022/05/15 08:34:06;;;;;;;;;;;;;;;25.06;38.69;92936.34;2055537;69;20093;-72
2022/05/15 08:36:32;;;;;;;;;;;;;;;25.33;36.90;92933.72;2055458;69;20133;-72
2022/05/15 08:38:57;;;;;;;;;;;;;;;25.06;36.20;92932.72;2055199;70;20137;-72
2022/05/15 08:41:23;;;;;;;;;;;;;;;25.40;34.93;92926.59;2055494;70;20086;-72
2022/05/15 08:43:58;;;;;;;;;;;;;;;25.64;35.61;92931.84;2055511;70;20095;-72
2022/05/15 08:46:36;;;;;;;;;;;;;;;25.99;34.41;92921.34;2055645;70;20054;-74
2022/05/15 08:49:09;;;;;;;;;;;;;;;25.90;34.33;92919.84;2055447;70;20056;-72
2022/05/15 08:55:10;;;;;;;;;;;;;;;26.14;34.28;92916.38;2055549;69;20096;-73
2022/05/15 08:57:36;;;;;;;;;;;;;;;26.59;35.16;92911.59;2055541;70;20127;-72
2022/05/15 09:00:05;;;;;;;;;;;;;;;26.41;34.60;92907.88;2055621;70;20510;-71
2022/05/15 09:02:30;;;;;;;;;;;;;;;26.81;34.71;92908.06;2055334;69;20461;-72
2022/05/15 09:04:56;;;;;;;;;;;;;;;27.16;35.20;92902.38;2055496;70;20050;-74
2022/05/15 09:07:22;;;;;;;;;;;;;;;26.41;34.01;92899.94;2068525;69;20543;-72
2022/05/15 09:09:59;;;;;;;;;;;;;;;27.04;33.50;92897.28;2055537;70;20046;-71
2022/05/15 09:12:26;;;;;;;;;;;;;;;27.40;34.67;92898.06;2055625;70;20139;-71
2022/05/15 09:15:04;;;;;;;;;;;;;;;27.79;34.18;92898.84;2055450;70;20494;-71
2022/05/15 09:17:48;;;;;;;;;;;;;;;28.04;31.70;92897.38;2055466;70;20108;-71
2022/05/15 09:20:21;;;;;;;;;;;;;;;28.30;31.71;92885.00;2055630;69;20117;-71
2022/05/15 09:22:54;;;;;;;;;;;;;;;28.62;32.34;92886.38;2055550;69;20119;-72
2022/05/15 09:25:22;;;;;;;;;;;;;;;28.22;32.72;92873.44;2055414;70;20143;-71
2022/05/15 09:27:56;;;;;;;;;;;;;;;28.10;30.53;92882.19;2055448;70;20555;-72
2022/05/15 09:30:22;;;;;;;;;;;;;;;29.18;30.26;92881.06;2055441;70;20146;-73
2022/05/15 09:32:54;;;;;;;;;;;;;;;27.95;31.58;92872.06;2055456;70;20134;-72
2022/05/15 09:35:32;;;;;;;;;;;;;;;28.86;32.83;92868.91;2055462;70;20046;-72
2022/05/15 09:43:37;;;;;;;;;;;;;;;28.45;30.71;92861.81;2055194;70;20058;-72
2022/05/15 09:46:15;;;;;;;;;;;;;;;29.09;31.09;92860.84;2055462;70;20120;-72
2022/05/15 09:48:53;;;;;;;;;;;;;;;29.52;29.42;92865.59;2068020;69;20062;-72
2022/05/15 09:51:27;;;;;;;;;;;;;;;29.91;27.58;92857.31;2068472;69;20424;-73
2022/05/15 09:53:54;;;;;;;;;;;;;;;30.01;29.09;92853.59;2055422;70;20086;-73
2022/05/15 09:56:19;;;;;;;;;;;;;;;29.77;28.91;92855.25;2055066;70;20525;-72
2022/05/15 09:58:52;;;;;;;;;;;;;;;30.51;29.11;92855.25;2055320;70;20090;-72
2022/05/15 10:01:35;;;;;;;;;;;;;;;30.27;27.84;92855.53;2068432;69;20120;-73
2022/05/15 10:04:03;;;;;;;;;;;;;;;30.53;27.33;92848.72;2068319;69;20068;-73
2022/05/15 10:06:33;;;;;;;;;;;;;;;31.24;28.46;92850.69;2055028;70;20441;-75
2022/05/15 10:12:29;;;;;;;;;;;;;;;32.02;27.91;92847.28;2055408;69;20045;-72
2022/05/15 10:14:56;;;;;;;;;;;;;;;32.31;28.28;92841.69;2055633;70;20050;-74
2022/05/15 10:17:22;;;;;;;;;;;;;;;32.62;27.17;92841.09;2068859;69;20061;-71
2022/05/15 10:19:51;;;;;;;;;;;;;;;32.84;25.58;92837.00;2055817;70;20146;-75
2022/05/15 10:22:25;;;;;;;;;;;;;;;33.20;25.57;92838.44;2055878;69;20097;-73
2022/05/15 10:24:51;;;;;;;;;;;;;;;32.64;25.82;92824.31;2055903;70;20074;-73
2022/05/15 10:27:23;;;;;;;;;;;;;;;32.63;26.33;92822.88;2055788;70;20068;-73
2022/05/15 10:30:07;;;;;;;;;;;;;;;32.83;25.12;92815.88;2055837;70;20050;-73
2022/05/15 10:32:39;;;;;;;;;;;;;;;33.69;25.10;92819.81;2055867;70;20196;-74
2022/05/15 10:35:06;;;;;;;;;;;;;;;34.53;24.73;92812.53;2055809;69;20139;-72
2022/05/15 10:37:32;;;;;;;;;;;;;;;34.80;23.38;92808.88;2055407;70;20050;-75
2022/05/15 10:40:07;;;;;;;;;;;;;;;34.85;22.95;92807.97;2055497;70;20550;-74
2022/05/15 10:42:51;;;;;;;;;;;;;;;34.67;21.93;92805.56;2055682;70;20057;-76
2022/05/15 10:45:26;;;;;;;;;;;;;;;34.82;23.07;92802.94;2055824;70;20057;-74
2022/05/15 10:48:02;;;;;;;;;;;;;;;36.36;20.79;92808.34;2055752;70;20050;-77
2022/05/15 10:50:46;;;;;;;;;;;;;;;36.52;20.07;92801.19;2055809;69;20050;-76
2022/05/15 10:59:21;;;;;;;;;;;;;;;41.24;15.36;92795.59;2055787;70;20054;-75
2022/05/15 11:01:56;;;;;;;;;;;;;;;42.89;15.74;92792.75;2055708;70;20145;-76
2022/05/15 11:04:34;;;;;;;;;;;;;;;45.99;14.15;92791.41;2055895;69;20089;-71
2022/05/15 11:07:07;;;;;;;;;;;;;;;42.21;12.39;92776.91;2055797;70;20085;-75
2022/05/15 11:09:33;;;;;;;;;;;;;;;46.56;12.08;92784.22;2055762;70;20056;-76
2022/05/15 11:11:58;;;;;;;;;;;;;;;46.76;12.22;92784.94;2055618;70;20225;-73
2022/05/15 11:14:28;;;;;;;;;;;;;;;48.92;12.23;92776.44;2055726;70;20086;-74
2022/05/15 11:17:07;;;;;;;;;;;;;;;48.68;11.04;92772.53;2055828;70;20049;-79
2022/05/15 11:19:44;;;;;;;;;;;;;;;49.05;11.57;92761.84;2055628;70;20093;-76
2022/05/15 11:22:16;;;;;;;;;;;;;;;50.42;10.53;92764.72;2055751;69;20437;-75
2022/05/15 11:25:08;;;;;;;;;;;;;;;50.42;10.30;92755.03;2055622;70;20057;-73
2022/05/15 11:27:33;;;;;;;;;;;;;;;50.13;9.56;92748.66;2055812;69;20081;-74
2022/05/15 11:30:02;;;;;;;;;;;;;;;48.43;9.76;92750.69;2055753;70;20413;-74
2022/05/15 11:36:22;;;;;;;;;;;;;;;50.65;9.54;92735.72;2055695;69;20136;-76
2022/05/15 11:38:59;;;;;;;;;;;;;;;51.94;8.64;92745.84;2057759;69;20082;-77
2022/05/15 11:41:36;;;;;;;;;;;;;;;48.69;8.94;92723.16;2057705;69;20168;-76
2022/05/15 11:44:04;;;;;;;;;;;;;;;51.13;8.25;92729.69;2057810;69;20049;-72
2022/05/15 11:46:45;;;;;;;;;;;;;;;50.85;9.33;92718.81;2057772;69;20050;-75
2022/05/15 11:49:14;;;;;;;;;;;;;;;50.69;9.39;92720.34;2054832;69;20172;-70
2022/05/15 11:51:40;;;;;;;;;;;;;;;51.57;8.63;92722.41;2057768;69;20046;-78
2022/05/15 11:54:10;;;;;;;;;;;;;;;51.12;8.63;92722.31;2057745;69;20054;-71
2022/05/15 11:56:55;;;;;;;;;;;;;;;51.30;8.46;92717.56;2057649;69;20058;-70
2022/05/15 11:59:32;;;;;;;;;;;;;;;50.01;8.22;92702.56;2057656;69;20081;-72
2022/05/15 12:02:02;;;;;;;;;;;;;;;46.09;9.58;92695.47;2057810;69;20057;-71
2022/05/15 12:04:33;;;;;;;;;;;;;;;48.82;9.11;92700.34;2057245;69;20073;-72
2022/05/15 12:06:59;;;;;;;;;;;;;;;49.82;8.46;92697.56;2057335;69;20096;-75
2022/05/15 12:09:33;;;;;;;;;;;;;;;47.68;9.92;92685.34;2056761;69;20054;-78
2022/05/15 12:12:17;;;;;;;;;;;;;;;48.57;8.32;92683.09;2057323;69;20116;-74
2022/05/15 12:15:03;;;;;;;;;;;;;;;47.33;10.34;92682.16;2058765;69;20141;-73
2022/05/15 12:17:30;;;;;;;;;;;;;;;48.72;8.68;92671.34;2071588;69;20052;-74
2022/05/15 12:20:16;;;;;;;;;;;;;;;49.82;7.71;92678.91;2071696;69;20045;-76
2022/05/15 12:22:43;;;;;;;;;;;;;;;52.62;7.83;92676.09;2071747;69;20080;-78
2022/05/15 12:25:10;;;;;;;;;;;;;;;48.46;8.67;92653.44;2071537;69;20056;-75
2022/05/15 12:27:46;;;;;;;;;;;;;;;51.30;8.52;92669.59;2071429;69;20064;-73
2022/05/15 12:30:17;;;;;;;;;;;;;;;51.65;6.99;92669.25;2071575;69;20072;-73
2022/05/15 12:32:48;;;;;;;;;;;;;;;52.33;7.54;92657.97;2071582;69;20054;-72
2022/05/15 12:35:15;;;;;;;;;;;;;;;49.34;7.25;92649.47;2071141;69;20091;-74
2022/05/15 12:37:52;;;;;;;;;;;;;;;47.06;8.57;92648.53;2071561;69;20114;-80
2022/05/15 12:40:29;;;;;;;;;;;;;;;50.69;7.67;92652.16;2071796;69;20504;-80
2022/05/15 12:42:56;;;;;;;;;;;;;;;47.80;8.73;92648.53;2071796;69;20044;-79
2022/05/15 12:45:22;;;;;;;;;;;;;;;51.07;8.13;92644.06;2071846;69;20114;-79
2022/05/15 12:51:23;;;;;;;;;;;;;;;46.88;8.39;92644.72;2071920;69;20087;-74
2022/05/15 12:53:49;;;;;;;;;;;;;;;52.31;6.95;92637.84;2071493;69;20519;-73
2022/05/15 12:56:33;;;;;;;;;;;;;;;50.65;7.77;92634.56;2071681;69;20059;-75
2022/05/15 12:59:01;;;;;;;;;;;;;;;45.98;9.25;92623.44;2071535;69;20047;-75
2022/05/15 13:01:29;;;;;;;;;;;;;;;42.59;12.21;92617.06;2071810;69;20080;-77
2022/05/15 13:03:56;;;;;;;;;;;;;;;43.07;12.09;92613.28;2071695;69;20047;-79
2022/05/15 13:06:46;;;;;;;;;;;;;;;42.02;12.17;92606.47;2071764;69;20397;-80
2022/05/15 13:09:18;;;;;;;;;;;;;;;41.61;13.11;92608.19;2072053;69;20072;-75
2022/05/15 13:11:46;;;;;;;;;;;;;;;39.49;14.62;92590.19;2071267;69;20548;-74
2022/05/15 13:14:19;;;;;;;;;;;;;;;37.47;15.37;92585.53;2066247;69;20078;-77
2022/05/15 13:16:46;;;;;;;;;;;;;;;39.47;14.64;92581.47;2055460;69;20050;-75
2022/05/15 13:19:14;;;;;;;;;;;;;;;39.37;13.79;92577.50;2055149;70;20054;-73
2022/05/15 13:21:41;;;;;;;;;;;;;;;39.06;14.91;92574.63;2055501;69;20166;-70
2022/05/15 13:24:07;;;;;;;;;;;;;;;36.55;15.17;92574.59;2055526;70;20065;-71
2022/05/15 13:26:39;;;;;;;;;;;;;;;37.22;16.07;92567.53;2055380;70;20422;-72
2022/05/15 13:32:32;;;;;;;;;;;;;;;36.95;17.41;92556.91;2055342;69;20052;-72
2022/05/15 13:34:58;;;;;;;;;;;;;;;36.89;17.16;92551.97;2055474;69;20054;-72
2022/05/15 13:37:31;;;;;;;;;;;;;;;35.06;16.62;92544.88;2055400;69;20116;-71
2022/05/15 13:45:46;;;;;;;;;;;;;;;35.22;16.61;92528.97;2055389;70;20058;-73
2022/05/15 13:48:12;;;;;;;;;;;;;;;35.22;17.12;92534.09;2055519;70;20046;-72
2022/05/15 13:50:40;;;;;;;;;;;;;;;34.80;17.41;92522.34;2055909;70;20056;-72
2022/05/15 13:53:26;;;;;;;;;;;;;;;33.51;17.15;92523.34;2055963;70;20098;-72
2022/05/15 13:55:55;;;;;;;;;;;;;;;33.90;17.12;92519.28;2055733;69;20055;-72
2022/05/15 13:58:21;;;;;;;;;;;;;;;32.83;18.21;92503.28;2055983;70;20057;-73
2022/05/15 14:01:06;;;;;;;;;;;;;;;33.22;18.22;92511.75;2055922;70;20054;-70
2022/05/15 14:03:33;;;;;;;;;;;;;;;33.72;17.94;92508.16;2055530;70;20100;-72
2022/05/15 14:06:17;;;;;;;;;;;;;;;33.07;18.29;92502.66;2055823;70;20050;-72
2022/05/15 14:09:04;;;;;;;;;;;;;;;32.78;19.23;92505.59;2055841;70;20054;-73
2022/05/15 14:11:49;;;;;;;;;;;;;;;32.47;19.81;92502.75;2055804;70;20145;-71
2022/05/15 14:14:14;;;;;;;;;;;;;;;32.99;20.26;92505.81;2055978;70;20095;-70
2022/05/15 14:16:40;;;;;;;;;;;;;;;32.71;19.43;92500.69;2055899;70;20429;-71